Time;durP1;ratioP1;P1;durP2;ratioP2;P2;SDS_P1;SDS_P2;PMS_P1;PMS_P2;Temp;Humidity;BMP_temperature;BMP_pressure;BME280_temperature;BME280_humidity;BME280_pressure;Samples;Min_cycle;Max_cycle;Signal;HPM_P1;HPM_P2
2023/08/16 04:06:41;;;;;;;3.07;2.77;;;18.30;99.90;;;;;;5002445;23;21066;-61
2023/08/16 04:09:07;;;;;;;2.93;2.73;;;18.30;99.90;;;;;;4976970;28;20423;-61
2023/08/16 04:11:32;;;;;;;2.40;2.20;;;18.30;99.90;;;;;;4976780;28;20530;-62
2023/08/16 04:13:58;;;;;;;3.17;2.90;;;18.40;99.90;;;;;;4976553;28;20208;-62
2023/08/16 04:16:23;;;;;;;3.50;3.20;;;18.40;99.90;;;;;;4976143;28;20554;-61
2023/08/16 04:18:53;;;;;;;3.53;3.23;;;18.40;99.90;;;;;;4976789;28;20191;-62
2023/08/16 04:21:19;;;;;;;3.23;2.93;;;18.50;99.90;;;;;;4976686;28;20642;-61
2023/08/16 04:23:44;;;;;;;3.80;3.13;;;18.50;99.90;;;;;;4976059;28;20455;-62
2023/08/16 04:26:10;;;;;;;3.53;3.23;;;18.60;99.90;;;;;;4976512;28;20797;-62
2023/08/16 04:28:35;;;;;;;3.47;3.20;;;18.60;99.90;;;;;;4976746;28;20168;-62
2023/08/16 04:31:01;;;;;;;2.80;2.60;;;18.60;99.90;;;;;;4976569;28;20172;-62
2023/08/16 04:33:27;;;;;;;3.60;2.90;;;18.60;99.90;;;;;;4976283;28;20187;-62
2023/08/16 04:35:53;;;;;;;4.63;4.10;;;18.60;99.90;;;;;;4975237;28;20196;-62
2023/08/16 04:38:19;;;;;;;3.67;3.30;;;18.60;99.90;;;;;;4975929;28;20174;-62
2023/08/16 04:40:49;;;;;;;3.97;3.67;;;18.60;99.90;;;;;;4976267;28;20502;-61
2023/08/16 04:43:15;;;;;;;4.13;3.70;;;18.70;99.90;;;;;;4976260;28;20227;-62
2023/08/16 04:45:40;;;;;;;5.97;4.33;;;18.80;99.90;;;;;;4975857;28;20445;-62
2023/08/16 04:48:08;;;;;;;4.40;4.00;;;18.80;99.90;;;;;;4976234;28;20187;-61
2023/08/16 04:50:34;;;;;;;3.63;3.33;;;18.90;99.90;;;;;;4976162;28;20657;-61
2023/08/16 04:53:00;;;;;;;4.77;4.13;;;19.00;99.90;;;;;;4975990;28;20378;-61
2023/08/16 04:55:26;;;;;;;3.03;2.83;;;18.90;99.90;;;;;;4975719;28;20551;-61
2023/08/16 04:57:51;;;;;;;4.20;3.27;;;19.00;99.90;;;;;;4975899;28;20421;-61
2023/08/16 05:00:19;;;;;;;3.50;3.20;;;18.90;99.90;;;;;;4975904;28;20661;-62
2023/08/16 05:02:44;;;;;;;3.67;3.37;;;18.90;99.90;;;;;;4975811;28;20211;-62
2023/08/16 05:05:10;;;;;;;4.00;3.63;;;19.00;99.90;;;;;;4975361;28;20435;-62
2023/08/16 05:07:36;;;;;;;4.67;4.27;;;19.30;99.90;;;;;;4958280;28;20519;-61
2023/08/16 05:10:01;;;;;;;4.00;3.70;;;19.60;99.90;;;;;;4975744;28;20183;-61
2023/08/16 05:12:27;;;;;;;5.07;3.73;;;19.80;99.90;;;;;;4975590;28;20686;-62
2023/08/16 05:14:53;;;;;;;4.40;4.00;;;19.90;99.90;;;;;;4975233;28;20196;-62
2023/08/16 05:17:18;;;;;;;3.77;3.47;;;20.00;99.90;;;;;;4975255;28;20176;-61
2023/08/16 05:19:44;;;;;;;3.53;3.23;;;20.00;99.90;;;;;;4975394;28;20188;-62
2023/08/16 05:22:09;;;;;;;3.07;2.87;;;20.00;99.90;;;;;;4975310;28;20614;-62
2023/08/16 05:24:35;;;;;;;3.70;3.40;;;19.90;99.90;;;;;;4975232;28;20614;-62
2023/08/16 05:27:01;;;;;;;3.50;3.30;;;19.90;99.90;;;;;;4975570;28;20180;-62
2023/08/16 05:29:26;;;;;;;3.13;2.73;;;19.90;99.90;;;;;;4974516;28;20180;-62
2023/08/16 05:31:52;;;;;;;4.50;4.10;;;20.00;99.90;;;;;;4975265;28;20203;-62
2023/08/16 05:34:19;;;;;;;3.43;3.13;;;20.10;99.90;;;;;;4974856;28;20199;-62
2023/08/16 05:36:50;;;;;;;5.10;3.60;;;20.20;99.90;;;;;;4975338;28;20187;-61
2023/08/16 05:39:15;;;;;;;3.90;3.40;;;20.30;99.90;;;;;;4975499;28;20426;-62
2023/08/16 05:41:41;;;;;;;4.17;3.73;;;20.30;99.90;;;;;;4975317;28;20404;-63
2023/08/16 05:44:07;;;;;;;4.00;3.67;;;20.40;99.90;;;;;;4974819;28;20164;-61
2023/08/16 05:46:32;;;;;;;4.30;3.27;;;20.60;99.90;;;;;;4975204;28;20741;-60
2023/08/16 05:49:00;;;;;;;4.10;3.70;;;20.70;99.90;;;;;;4975175;28;20180;-61
2023/08/16 05:51:26;;;;;;;2.83;2.60;;;20.80;99.90;;;;;;4975050;28;20180;-61
2023/08/16 05:53:52;;;;;;;3.87;3.57;;;20.90;99.90;;;;;;4974742;28;20386;-61
2023/08/16 05:56:18;;;;;;;4.20;3.27;;;21.00;99.90;;;;;;4974961;28;20417;-62
2023/08/16 05:58:45;;;;;;;3.43;3.23;;;21.20;99.90;;;;;;4975055;28;20203;-61
2023/08/16 06:01:10;;;;;;;3.00;2.80;;;21.30;99.90;;;;;;4974835;28;20259;-61
2023/08/16 06:03:36;;;;;;;3.00;2.80;;;21.40;99.90;;;;;;4974685;28;20826;-61
2023/08/16 06:06:02;;;;;;;3.20;2.97;;;21.60;99.90;;;;;;4974715;28;20271;-61
2023/08/16 06:08:27;;;;;;;3.63;3.37;;;21.80;99.90;;;;;;4974934;28;20183;-61
2023/08/16 06:10:53;;;;;;;3.40;3.13;;;21.90;99.90;;;;;;4974708;28;20193;-61
2023/08/16 06:13:18;;;;;;;4.33;2.40;;;22.00;99.90;;;;;;4974757;28;20202;-61
2023/08/16 06:15:44;;;;;;;2.37;2.27;;;22.10;99.90;;;;;;4974456;28;20280;-61
2023/08/16 06:18:09;;;;;;;2.70;2.50;;;22.20;99.90;;;;;;4974793;28;20499;-61
2023/08/16 06:20:35;;;;;;;3.10;2.80;;;22.30;99.90;;;;;;4974642;28;20175;-61
2023/08/16 06:23:01;;;;;;;3.17;2.50;;;22.50;99.90;;;;;;4974499;28;20633;-62
2023/08/16 06:25:27;;;;;;;2.60;2.40;;;22.70;99.90;;;;;;4974275;28;20206;-61
2023/08/16 06:27:53;;;;;;;2.20;2.10;;;23.00;99.90;;;;;;4974659;28;20861;-61
2023/08/16 06:30:19;;;;;;;2.90;2.33;;;23.40;99.90;;;;;;4974669;28;20605;-61
2023/08/16 06:32:45;;;;;;;2.40;2.20;;;23.60;99.90;;;;;;4974538;28;20208;-61
2023/08/16 06:35:10;;;;;;;2.47;2.37;;;23.80;99.90;;;;;;4974286;28;20200;-61
2023/08/16 06:37:38;;;;;;;2.60;2.10;;;24.00;99.90;;;;;;4974492;28;20411;-62
2023/08/16 06:40:04;;;;;;;2.60;2.40;;;24.10;99.90;;;;;;4976163;28;20187;-61
2023/08/16 06:42:31;;;;;;;2.33;2.20;;;24.30;99.90;;;;;;4978500;28;20469;-61
2023/08/16 06:44:56;;;;;;;3.10;2.80;;;24.40;99.90;;;;;;4977845;28;20435;-62
2023/08/16 06:47:22;;;;;;;3.00;2.80;;;24.60;99.90;;;;;;4960843;28;20497;-62
2023/08/16 06:49:48;;;;;;;3.00;2.80;;;24.60;99.90;;;;;;4978695;28;20235;-63
2023/08/16 06:52:13;;;;;;;2.90;2.70;;;24.70;99.90;;;;;;4978179;28;20211;-62
2023/08/16 06:54:40;;;;;;;3.17;2.87;;;24.80;99.90;;;;;;4977833;28;20199;-62
2023/08/16 06:57:05;;;;;;;4.57;2.60;;;24.80;99.90;;;;;;4978229;28;20542;-61
2023/08/16 06:59:31;;;;;;;4.87;2.70;;;24.80;99.90;;;;;;4978085;28;20419;-61
2023/08/16 07:01:57;;;;;;;2.87;2.63;;;24.90;99.90;;;;;;4977844;28;20285;-62
2023/08/16 07:04:23;;;;;;;3.30;3.03;;;24.90;99.90;;;;;;4977761;28;20184;-62
2023/08/16 07:06:48;;;;;;;3.43;3.10;;;24.80;99.90;;;;;;4977849;28;20196;-62
2023/08/16 07:09:14;;;;;;;2.77;2.57;;;24.80;99.90;;;;;;4978029;28;20216;-61
2023/08/16 07:11:40;;;;;;;3.60;2.90;;;24.80;99.90;;;;;;4978207;28;20181;-62
2023/08/16 07:14:05;;;;;;;3.00;2.80;;;24.80;99.90;;;;;;4977399;28;20242;-62
2023/08/16 07:16:32;;;;;;;2.00;1.90;;;24.80;99.90;;;;;;4978450;28;20204;-61
2023/08/16 07:18:58;;;;;;;2.80;2.60;;;25.00;99.90;;;;;;4977674;28;20180;-62
2023/08/16 07:21:23;;;;;;;3.00;2.80;;;25.20;99.90;;;;;;4977639;28;20498;-61
2023/08/16 07:23:49;;;;;;;3.37;2.73;;;25.50;99.90;;;;;;4977296;28;20192;-61
2023/08/16 07:26:15;;;;;;;3.50;3.20;;;25.70;99.90;;;;;;4977598;28;20206;-61
2023/08/16 07:28:40;;;;;;;3.67;2.70;;;25.90;99.90;;;;;;4977585;28;20194;-62
2023/08/16 07:31:06;;;;;;;3.30;3.00;;;26.00;99.90;;;;;;4977658;28;20261;-62
2023/08/16 07:33:32;;;;;;;2.67;2.47;;;26.10;99.90;;;;;;4977283;28;20566;-62
2023/08/16 07:36:01;;;;;;;3.77;3.00;;;26.40;99.90;;;;;;4960085;28;20200;-62
2023/08/16 07:38:28;;;;;;;2.70;2.50;;;26.80;99.90;;;;;;4977353;28;20176;-62
2023/08/16 07:40:54;;;;;;;3.30;3.00;;;27.40;99.90;;;;;;4960034;28;20985;-62
2023/08/16 07:43:20;;;;;;;2.67;2.47;;;28.10;99.90;;;;;;4977343;28;20474;-62
2023/08/16 07:45:45;;;;;;;2.97;2.77;;;28.60;99.90;;;;;;4976997;28;20199;-62
2023/08/16 07:48:11;;;;;;;4.17;3.03;;;29.40;99.90;;;;;;4977322;28;20176;-62
2023/08/16 07:50:36;;;;;;;3.20;2.90;;;30.40;99.90;;;;;;4976673;28;20180;-62
2023/08/16 07:53:02;;;;;;;2.60;2.40;;;31.10;99.90;;;;;;4976368;28;20692;-62
2023/08/16 07:55:32;;;;;;;3.20;3.00;;;31.90;99.20;;;;;;4976895;28;20199;-62
2023/08/16 07:57:58;;;;;;;3.13;2.97;;;32.80;97.50;;;;;;4976925;28;20447;-62
2023/08/16 08:00:24;;;;;;;3.30;3.00;;;33.30;96.60;;;;;;4977150;28;20422;-62
2023/08/16 08:02:50;;;;;;;3.67;3.37;;;33.90;95.70;;;;;;4977121;28;20898;-62
2023/08/16 08:05:15;;;;;;;3.20;3.00;;;34.70;94.20;;;;;;4976691;28;20200;-62
2023/08/16 08:07:41;;;;;;;3.70;3.40;;;34.80;92.70;;;;;;4976769;28;20590;-62
2023/08/16 08:10:07;;;;;;;4.00;3.70;;;34.80;92.50;;;;;;4976932;28;20180;-61
2023/08/16 08:12:33;;;;;;;4.10;3.80;;;35.00;92.60;;;;;;4976515;28;20287;-61
2023/08/16 08:14:59;;;;;;;4.00;3.70;;;35.30;91.50;;;;;;4976269;28;20879;-61
2023/08/16 08:17:24;;;;;;;3.23;3.00;;;35.60;91.20;;;;;;4976849;28;20184;-61
2023/08/16 08:19:50;;;;;;;3.67;3.47;;;36.10;90.60;;;;;;4976733;28;20172;-61
2023/08/16 08:22:16;;;;;;;3.50;3.30;;;36.30;89.00;;;;;;4976989;28;20423;-61
2023/08/16 08:24:41;;;;;;;2.93;2.73;;;36.50;88.50;;;;;;4976228;28;20647;-62
2023/08/16 08:27:07;;;;;;;3.73;3.43;;;36.50;88.40;;;;;;4976552;28;20184;-61
2023/08/16 08:29:32;;;;;;;3.50;3.30;;;36.40;89.10;;;;;;4976356;28;20172;-64
2023/08/16 08:31:58;;;;;;;3.53;3.33;;;36.50;87.50;;;;;;4976225;28;20207;-64
2023/08/16 08:34:26;;;;;;;3.00;2.80;;;36.50;89.30;;;;;;4976038;28;20169;-62
2023/08/16 08:36:52;;;;;;;3.60;3.40;;;36.80;88.30;;;;;;4976417;28;20184;-62
2023/08/16 08:39:19;;;;;;;4.03;3.80;;;37.40;85.10;;;;;;4976441;28;20426;-62
2023/08/16 08:41:48;;;;;;;4.07;3.77;;;37.80;83.10;;;;;;4976321;28;20184;-61
2023/08/16 08:44:17;;;;;;;3.70;3.50;;;37.70;82.20;;;;;;4976044;28;20478;-61
2023/08/16 08:46:44;;;;;;;4.13;3.43;;;37.50;84.30;;;;;;4976268;28;20423;-61
2023/08/16 08:49:10;;;;;;;4.40;3.60;;;37.50;84.10;;;;;;4976228;28;20941;-61
2023/08/16 08:51:38;;;;;;;3.40;3.20;;;37.40;83.10;;;;;;4976004;28;20886;-63
2023/08/16 08:54:04;;;;;;;4.13;3.93;;;37.60;82.50;;;;;;4975801;28;20555;-61
2023/08/16 08:56:30;;;;;;;3.37;3.17;;;37.80;81.60;;;;;;4975979;28;20467;-64
2023/08/16 08:58:58;;;;;;;3.97;3.67;;;37.90;81.60;;;;;;4975828;28;20408;-63
2023/08/16 09:01:24;;;;;;;4.83;4.53;;;37.90;81.60;;;;;;4976243;28;20419;-63
2023/08/16 09:03:52;;;;;;;3.80;3.60;;;38.20;81.60;;;;;;4975356;28;20830;-62
2023/08/16 09:06:18;;;;;;;3.80;3.60;;;38.40;80.80;;;;;;4975638;28;20458;-63
2023/08/16 09:08:45;;;;;;;4.10;3.90;;;38.70;80.20;;;;;;4975617;28;20435;-62
2023/08/16 09:11:15;;;;;;;4.37;4.07;;;39.00;78.50;;;;;;4975810;28;20834;-61
2023/08/16 09:13:41;;;;;;;3.63;3.43;;;38.90;78.50;;;;;;4975324;28;20475;-64
2023/08/16 09:16:07;;;;;;;4.53;4.23;;;38.80;78.10;;;;;;4975499;28;20428;-61
2023/08/16 09:18:32;;;;;;;3.90;3.70;;;38.60;78.40;;;;;;4975650;28;20443;-62
2023/08/16 09:20:59;;;;;;;3.97;3.73;;;38.00;79.90;;;;;;4975532;28;20176;-63
2023/08/16 09:23:25;;;;;;;4.30;4.00;;;37.30;80.80;;;;;;4975060;28;20597;-62
2023/08/16 09:25:51;;;;;;;4.20;3.90;;;36.90;82.50;;;;;;4975472;28;20440;-63
2023/08/16 09:28:17;;;;;;;4.30;4.00;;;36.90;82.60;;;;;;4975440;28;20770;-61
2023/08/16 09:30:43;;;;;;;4.43;4.03;;;37.20;82.10;;;;;;4975426;28;20515;-63
2023/08/16 09:33:12;;;;;;;3.90;3.70;;;37.80;80.50;;;;;;4975222;28;20200;-63
2023/08/16 09:35:44;;;;;;;4.20;4.00;;;38.30;80.20;;;;;;4974815;28;20232;-63
2023/08/16 09:38:09;;;;;;;3.60;3.40;;;39.10;77.70;;;;;;4975317;28;20415;-62
2023/08/16 09:40:35;;;;;;;4.40;3.90;;;39.50;75.80;;;;;;4975256;28;20507;-62
2023/08/16 09:43:01;;;;;;;3.93;3.63;;;39.50;75.50;;;;;;4975203;28;20192;-62
2023/08/16 09:45:34;;;;;;;3.57;3.37;;;39.40;76.10;;;;;;4974706;28;20515;-62
2023/08/16 09:48:01;;;;;;;3.77;3.57;;;39.30;75.50;;;;;;4975116;28;20443;-62
2023/08/16 09:50:36;;;;;;;4.17;3.87;;;39.00;75.90;;;;;;4974877;28;20430;-63
2023/08/16 09:53:05;;;;;;;4.43;4.10;;;38.50;76.70;;;;;;4957614;28;20423;-62
2023/08/16 09:55:33;;;;;;;3.90;3.70;;;38.20;78.60;;;;;;4974728;28;20467;-63
2023/08/16 09:57:59;;;;;;;4.87;4.57;;;38.40;79.10;;;;;;4975141;28;20427;-62
2023/08/16 10:00:27;;;;;;;4.27;3.87;;;38.20;78.70;;;;;;4974956;28;20901;-62
2023/08/16 10:02:53;;;;;;;3.53;3.23;;;38.30;78.50;;;;;;4957622;28;20493;-62
2023/08/16 10:05:19;;;;;;;4.03;3.80;;;38.10;79.50;;;;;;4974559;28;20427;-62
2023/08/16 10:07:48;;;;;;;4.27;3.97;;;37.80;79.20;;;;;;4974670;28;20440;-62
2023/08/16 10:10:15;;;;;;;3.60;3.40;;;37.70;80.40;;;;;;4974943;28;20435;-63
2023/08/16 10:12:42;;;;;;;3.93;3.63;;;37.60;80.20;;;;;;4974828;28;20447;-63
2023/08/16 10:15:09;;;;;;;3.80;3.60;;;37.70;80.40;;;;;;4973649;28;20487;-62
2023/08/16 10:17:39;;;;;;;4.87;4.40;;;37.70;80.10;;;;;;4957340;28;20905;-63
2023/08/16 10:20:12;;;;;;;4.03;3.83;;;37.00;81.20;;;;;;4974759;28;20774;-63
2023/08/16 10:22:41;;;;;;;4.27;3.87;;;36.20;81.70;;;;;;4974678;28;20489;-63
2023/08/16 10:25:12;;;;;;;3.73;3.50;;;35.70;83.60;;;;;;4974238;28;20451;-62
2023/08/16 10:27:41;;;;;;;3.97;3.77;;;35.70;84.20;;;;;;4974672;28;20893;-62
2023/08/16 10:30:10;;;;;;;4.00;3.70;;;35.60;84.10;;;;;;4974599;28;20821;-62
2023/08/16 10:32:40;;;;;;;4.07;3.83;;;35.30;84.80;;;;;;4974417;28;20410;-62
2023/08/16 10:35:07;;;;;;;3.60;3.40;;;35.30;85.70;;;;;;4974029;28;20435;-62
2023/08/16 10:37:33;;;;;;;3.93;3.70;;;35.80;86.00;;;;;;4974601;28;20459;-63
2023/08/16 10:39:59;;;;;;;4.17;3.83;;;36.40;83.90;;;;;;4957331;28;20424;-62
2023/08/16 10:42:27;;;;;;;4.03;3.67;;;36.70;81.60;;;;;;4974444;28;20269;-63
2023/08/16 10:44:53;;;;;;;3.80;3.53;;;36.30;82.10;;;;;;4956762;28;20750;-63
2023/08/16 10:47:29;;;;;;;3.93;3.53;;;35.80;83.30;;;;;;4974524;28;20502;-63
2023/08/16 10:49:55;;;;;;;4.30;4.00;;;35.50;84.70;;;;;;4974529;28;20200;-63
2023/08/16 10:52:30;;;;;;;4.70;4.30;;;35.20;84.60;;;;;;4974517;28;20795;-63
2023/08/16 10:54:58;;;;;;;4.90;4.50;;;34.90;85.60;;;;;;4973896;28;20199;-63
2023/08/16 10:57:25;;;;;;;3.57;3.37;;;34.80;85.70;;;;;;4974147;28;20459;-63
2023/08/16 11:00:03;;;;;;;4.10;3.80;;;35.10;85.50;;;;;;4974390;28;20526;-63
2023/08/16 11:02:34;;;;;;;4.60;4.20;;;35.40;85.80;;;;;;4974206;28;20466;-62
2023/08/16 11:05:00;;;;;;;3.47;3.27;;;35.70;84.40;;;;;;4973837;28;20406;-62
2023/08/16 11:07:28;;;;;;;3.73;3.40;;;36.10;84.10;;;;;;4973967;28;20571;-63
2023/08/16 11:10:00;;;;;;;3.50;3.20;;;36.30;82.90;;;;;;4974091;28;20184;-63
2023/08/16 11:12:34;;;;;;;3.67;3.47;;;36.30;81.70;;;;;;4974083;28;20462;-63
2023/08/16 11:15:00;;;;;;;4.03;3.73;;;36.30;82.30;;;;;;4973740;28;20443;-63
2023/08/16 11:17:26;;;;;;;3.40;3.10;;;36.20;81.60;;;;;;4974188;28;20411;-62
2023/08/16 11:19:53;;;;;;;3.80;3.60;;;35.60;82.70;;;;;;4974212;28;20633;-62
2023/08/16 11:22:20;;;;;;;3.40;3.20;;;34.90;84.20;;;;;;4974117;28;20601;-64
2023/08/16 11:24:47;;;;;;;4.60;3.53;;;34.20;86.30;;;;;;4973665;28;20944;-63
2023/08/16 11:27:15;;;;;;;4.17;3.87;;;33.60;88.50;;;;;;4977383;28;20411;-62
2023/08/16 11:29:51;;;;;;;4.00;3.70;;;33.20;90.10;;;;;;4977702;28;20770;-62
2023/08/16 11:32:36;;;;;;;4.50;3.30;;;32.80;91.00;;;;;;4977722;28;20393;-62
2023/08/16 11:35:06;;;;;;;4.13;3.70;;;32.40;91.90;;;;;;4977289;28;20442;-62
2023/08/16 11:37:33;;;;;;;4.13;3.80;;;32.00;90.60;;;;;;4977566;28;20391;-61
2023/08/16 11:40:04;;;;;;;3.80;3.50;;;31.90;91.70;;;;;;4977519;28;20748;-62
2023/08/16 11:42:30;;;;;;;4.60;4.20;;;31.80;91.40;;;;;;4977413;28;20467;-62
2023/08/16 11:44:56;;;;;;;4.23;3.83;;;31.80;91.20;;;;;;4976863;28;20434;-62
2023/08/16 11:47:23;;;;;;;4.20;3.80;;;31.70;91.70;;;;;;4977589;28;20744;-63
2023/08/16 11:49:49;;;;;;;3.80;3.50;;;31.60;91.40;;;;;;4977358;28;20646;-62
2023/08/16 11:52:25;;;;;;;3.67;3.37;;;31.50;92.40;;;;;;4959780;28;20756;-62
2023/08/16 11:55:19;;;;;;;3.90;3.50;;;31.40;92.00;;;;;;4976663;28;20447;-61
2023/08/16 11:57:46;;;;;;;3.77;3.37;;;31.20;92.50;;;;;;4960368;28;20424;-60
2023/08/16 12:00:15;;;;;;;3.60;3.30;;;31.10;92.30;;;;;;4977162;28;20480;-61
2023/08/16 12:02:43;;;;;;;3.67;3.33;;;31.20;92.30;;;;;;4976919;28;20925;-61
2023/08/16 12:05:10;;;;;;;3.63;3.43;;;31.20;92.00;;;;;;4976517;28;20410;-60
2023/08/16 12:07:49;;;;;;;3.90;3.60;;;31.20;91.80;;;;;;4959532;28;20932;-61
2023/08/16 12:10:22;;;;;;;5.90;3.50;;;31.20;91.50;;;;;;4976912;28;20400;-61
2023/08/16 12:12:49;;;;;;;4.03;3.73;;;31.20;91.40;;;;;;4976960;28;20427;-61
2023/08/16 12:15:14;;;;;;;3.47;3.17;;;31.10;91.90;;;;;;4959364;28;20538;-61
2023/08/16 12:17:40;;;;;;;3.70;3.40;;;31.10;92.40;;;;;;4976657;28;20845;-62
2023/08/16 12:20:06;;;;;;;3.50;3.20;;;31.20;92.80;;;;;;4976810;28;20177;-62
2023/08/16 12:22:32;;;;;;;3.07;2.87;;;31.30;91.70;;;;;;4976614;28;20604;-61
2023/08/16 12:24:57;;;;;;;2.83;2.57;;;31.30;90.90;;;;;;4976112;28;20414;-61
2023/08/16 12:27:23;;;;;;;2.73;2.53;;;31.40;90.90;;;;;;4976568;28;20180;-62
2023/08/16 12:29:48;;;;;;;2.80;2.60;;;31.40;89.70;;;;;;4976623;28;20180;-62
2023/08/16 12:32:14;;;;;;;2.77;2.57;;;31.40;89.10;;;;;;4976736;28;20223;-62
2023/08/16 12:34:39;;;;;;;2.90;2.60;;;31.40;88.50;;;;;;4975941;28;20200;-62
2023/08/16 12:37:07;;;;;;;2.87;2.67;;;31.40;88.10;;;;;;4975897;28;20177;-62
2023/08/16 12:39:32;;;;;;;3.17;2.87;;;31.40;88.40;;;;;;4958868;28;20187;-62
2023/08/16 12:41:58;;;;;;;3.23;2.93;;;31.50;88.50;;;;;;4958793;28;20386;-62
2023/08/16 12:44:24;;;;;;;3.20;2.67;;;31.50;89.30;;;;;;4976021;28;20173;-62
2023/08/16 12:46:50;;;;;;;3.60;3.30;;;31.50;89.10;;;;;;4976269;28;20211;-62
2023/08/16 12:49:15;;;;;;;2.83;2.60;;;31.40;89.30;;;;;;4976252;28;20398;-62
2023/08/16 12:51:42;;;;;;;3.13;2.83;;;31.50;89.80;;;;;;4958661;28;20247;-62
2023/08/16 12:54:08;;;;;;;2.73;2.53;;;31.50;89.40;;;;;;4975837;28;20191;-62
2023/08/16 12:56:33;;;;;;;2.80;2.60;;;31.50;89.30;;;;;;4976008;28;20398;-62
2023/08/16 12:58:59;;;;;;;2.97;2.77;;;31.50;89.60;;;;;;4975889;28;20179;-62
2023/08/16 13:01:24;;;;;;;2.60;2.37;;;31.60;87.60;;;;;;4975912;28;20172;-61
2023/08/16 13:03:50;;;;;;;2.53;2.33;;;31.60;87.00;;;;;;4975616;28;20222;-61
2023/08/16 13:06:16;;;;;;;2.40;2.30;;;31.50;86.90;;;;;;4975666;28;20570;-62
2023/08/16 13:08:41;;;;;;;3.37;3.07;;;31.50;85.60;;;;;;4975882;28;20523;-62
2023/08/16 13:11:07;;;;;;;2.50;2.30;;;31.60;85.60;;;;;;4975835;28;20206;-62
2023/08/16 13:13:32;;;;;;;3.03;2.80;;;31.60;87.20;;;;;;4975411;28;20180;-62
2023/08/16 13:15:58;;;;;;;2.60;2.40;;;31.70;87.20;;;;;;4958316;28;20207;-62
2023/08/16 13:18:24;;;;;;;2.93;2.73;;;31.60;87.20;;;;;;4975590;28;20177;-62
2023/08/16 13:20:49;;;;;;;2.50;2.30;;;31.60;86.80;;;;;;4975575;28;20198;-62
2023/08/16 13:23:16;;;;;;;2.93;2.70;;;31.40;86.20;;;;;;4975522;28;20211;-61
2023/08/16 13:25:42;;;;;;;2.60;2.40;;;31.40;86.80;;;;;;4975291;28;20200;-62
2023/08/16 13:28:08;;;;;;;2.50;2.07;;;31.40;86.90;;;;;;4975598;28;20401;-62
2023/08/16 13:30:39;;;;;;;2.87;2.67;;;31.40;86.30;;;;;;4975465;28;20176;-62
2023/08/16 13:33:05;;;;;;;3.33;2.80;;;31.40;86.20;;;;;;4975285;28;20409;-62
2023/08/16 13:35:31;;;;;;;2.37;2.17;;;31.30;86.90;;;;;;4974787;28;20435;-62
2023/08/16 13:37:56;;;;;;;2.33;2.23;;;31.40;85.60;;;;;;4975372;28;20485;-62
2023/08/16 13:40:22;;;;;;;4.60;2.90;;;31.40;86.70;;;;;;4975202;28;20180;-62
2023/08/16 13:42:47;;;;;;;2.50;2.30;;;31.50;85.60;;;;;;4974992;28;20206;-62
2023/08/16 13:45:13;;;;;;;2.70;2.50;;;31.50;85.30;;;;;;4974676;28;20203;-62
2023/08/16 13:47:39;;;;;;;2.70;2.50;;;31.60;85.30;;;;;;4975145;28;20186;-62
2023/08/16 13:50:05;;;;;;;3.00;2.80;;;31.60;84.40;;;;;;4956919;28;20223;-62
2023/08/16 13:52:30;;;;;;;3.63;2.87;;;31.60;84.40;;;;;;4974793;28;20191;-62
2023/08/16 13:54:56;;;;;;;2.60;2.43;;;31.60;84.60;;;;;;4957248;28;20448;-62
2023/08/16 13:57:21;;;;;;;2.80;2.60;;;31.70;84.00;;;;;;4974885;28;20241;-61
2023/08/16 13:59:47;;;;;;;2.40;2.20;;;31.90;83.90;;;;;;4974996;28;20208;-61
2023/08/16 14:02:13;;;;;;;2.80;2.60;;;31.90;83.60;;;;;;4974868;28;20204;-61
2023/08/16 14:04:41;;;;;;;2.30;2.10;;;31.90;83.40;;;;;;4974389;28;20370;-61
2023/08/16 14:07:06;;;;;;;2.13;2.03;;;31.90;83.80;;;;;;4974586;28;20188;-61
2023/08/16 14:09:32;;;;;;;2.77;2.57;;;31.90;82.60;;;;;;4975249;28;20412;-61
2023/08/16 14:11:58;;;;;;;2.60;2.40;;;31.90;83.40;;;;;;4974826;28;20598;-62
2023/08/16 14:14:24;;;;;;;2.60;2.40;;;31.90;82.60;;;;;;4974144;28;20413;-61
2023/08/16 14:16:50;;;;;;;2.53;2.10;;;31.90;83.20;;;;;;4974661;28;20395;-62
2023/08/16 14:19:15;;;;;;;2.90;2.47;;;31.80;82.60;;;;;;4974721;28;20206;-62
2023/08/16 14:21:41;;;;;;;8.10;2.00;;;31.80;83.40;;;;;;4974776;28;20182;-61
2023/08/16 14:24:10;;;;;;;3.00;2.43;;;31.80;83.10;;;;;;4974214;28;20212;-62
2023/08/16 14:26:35;;;;;;;2.80;2.20;;;31.80;83.40;;;;;;4974480;28;20180;-61
2023/08/16 14:29:03;;;;;;;2.60;2.43;;;31.70;82.20;;;;;;4974504;28;20404;-60
2023/08/16 14:31:28;;;;;;;4.10;2.37;;;31.70;83.10;;;;;;4957101;28;20176;-61
2023/08/16 14:33:54;;;;;;;5.17;2.97;;;31.60;83.90;;;;;;4974295;28;20930;-62
2023/08/16 14:36:20;;;;;;;3.17;1.90;;;31.50;83.20;;;;;;4974350;28;20204;-61
2023/08/16 14:38:45;;;;;;;3.23;2.27;;;31.30;83.10;;;;;;4974855;28;20307;-61
2023/08/16 14:41:11;;;;;;;1.90;1.80;;;31.20;83.40;;;;;;4974359;28;20195;-61
2023/08/16 14:43:36;;;;;;;2.40;2.30;;;31.10;83.40;;;;;;4974206;28;20627;-61
2023/08/16 14:46:02;;;;;;;2.47;2.30;;;31.00;84.30;;;;;;4974175;28;20659;-62
2023/08/16 14:48:27;;;;;;;2.17;2.03;;;30.90;84.80;;;;;;4974454;28;20176;-62
2023/08/16 14:50:53;;;;;;;2.03;1.93;;;30.80;84.80;;;;;;4974439;28;20183;-62
2023/08/16 14:53:18;;;;;;;2.50;2.30;;;30.80;84.50;;;;;;4974382;28;20635;-63
2023/08/16 14:55:44;;;;;;;2.53;2.30;;;30.80;84.50;;;;;;4973969;28;20607;-62
2023/08/16 14:58:10;;;;;;;2.47;2.37;;;30.80;83.90;;;;;;4974299;28;20271;-62
2023/08/16 15:00:35;;;;;;;2.17;2.07;;;30.80;84.10;;;;;;4975256;28;20669;-61
2023/08/16 15:03:01;;;;;;;2.33;2.13;;;30.80;84.40;;;;;;4977938;28;20208;-61
2023/08/16 15:05:27;;;;;;;1.87;1.77;;;30.80;84.90;;;;;;4977623;28;20194;-61
2023/08/16 15:07:54;;;;;;;2.10;2.00;;;30.80;85.20;;;;;;4977748;28;20196;-61
2023/08/16 15:10:19;;;;;;;2.03;1.93;;;30.80;85.40;;;;;;4977940;28;20789;-61
2023/08/16 15:12:45;;;;;;;2.90;2.70;;;30.80;85.70;;;;;;4977686;28;20447;-62
2023/08/16 15:15:12;;;;;;;2.27;2.17;;;30.80;86.40;;;;;;4977428;28;20207;-63
2023/08/16 15:17:38;;;;;;;2.53;2.33;;;30.80;86.30;;;;;;4977790;28;20279;-62
2023/08/16 15:20:05;;;;;;;2.43;2.33;;;30.80;85.90;;;;;;4977700;28;20444;-62
2023/08/16 15:22:30;;;;;;;2.23;2.13;;;30.70;86.20;;;;;;4977543;28;20218;-62
2023/08/16 15:24:56;;;;;;;2.10;1.90;;;30.70;86.60;;;;;;4977047;28;20406;-62
2023/08/16 15:27:21;;;;;;;2.80;2.60;;;30.60;86.70;;;;;;4977763;28;20184;-61
2023/08/16 15:29:47;;;;;;;2.77;2.53;;;30.60;87.30;;;;;;4977805;28;20530;-61
2023/08/16 15:32:16;;;;;;;2.93;2.73;;;30.50;87.40;;;;;;4977508;28;20169;-62
2023/08/16 15:34:42;;;;;;;2.83;2.63;;;30.40;87.30;;;;;;4977374;28;20211;-62
2023/08/16 15:37:07;;;;;;;2.47;2.27;;;30.40;87.70;;;;;;4977466;28;20390;-60
2023/08/16 15:39:33;;;;;;;2.10;2.00;;;30.30;88.00;;;;;;4977363;28;20394;-62
2023/08/16 15:41:58;;;;;;;3.43;2.43;;;30.20;88.30;;;;;;4977219;28;20642;-61
2023/08/16 15:44:24;;;;;;;2.70;2.43;;;30.20;88.70;;;;;;4976831;28;20194;-61
2023/08/16 15:46:50;;;;;;;3.37;3.07;;;30.10;89.10;;;;;;4976961;28;20169;-61
2023/08/16 15:49:16;;;;;;;3.10;2.77;;;30.10;89.40;;;;;;4977200;28;20172;-62
2023/08/16 15:51:41;;;;;;;2.83;2.63;;;30.00;89.50;;;;;;4977099;28;20385;-62
2023/08/16 15:54:07;;;;;;;2.63;2.50;;;29.90;89.60;;;;;;4976908;28;20176;-62
2023/08/16 15:56:33;;;;;;;2.63;2.43;;;29.90;89.70;;;;;;4977244;28;20199;-61
2023/08/16 15:58:59;;;;;;;2.50;2.30;;;29.80;89.80;;;;;;4959962;28;20183;-62
2023/08/16 16:01:24;;;;;;;2.83;2.63;;;29.80;89.90;;;;;;4977050;28;20180;-62
2023/08/16 16:03:50;;;;;;;2.90;2.50;;;29.70;90.10;;;;;;4976605;28;20490;-62
2023/08/16 16:06:15;;;;;;;2.80;2.60;;;29.70;90.30;;;;;;4959640;28;20205;-61
2023/08/16 16:08:41;;;;;;;2.50;2.30;;;29.50;90.50;;;;;;4977027;28;20303;-61
2023/08/16 16:11:07;;;;;;;3.00;2.70;;;29.40;90.90;;;;;;4976867;28;20188;-61
2023/08/16 16:13:32;;;;;;;2.97;2.70;;;29.40;91.80;;;;;;4975636;28;20168;-63
2023/08/16 16:15:58;;;;;;;3.13;2.70;;;29.20;92.80;;;;;;4976456;28;20192;-62
2023/08/16 16:18:24;;;;;;;3.60;2.77;;;29.10;94.00;;;;;;4976761;28;20230;-62
2023/08/16 16:20:49;;;;;;;3.50;2.80;;;28.80;95.40;;;;;;4976752;28;20673;-61
2023/08/16 16:23:15;;;;;;;2.50;2.30;;;28.60;96.30;;;;;;4976461;28;20438;-62
2023/08/16 16:25:41;;;;;;;2.00;1.90;;;28.40;98.00;;;;;;4976177;28;20570;-61
2023/08/16 16:28:06;;;;;;;4.03;3.53;;;28.20;99.70;;;;;;4976570;28;20179;-61
2023/08/16 16:30:32;;;;;;;3.40;3.10;;;27.90;99.90;;;;;;4976471;28;20181;-61
2023/08/16 16:32:58;;;;;;;2.60;2.43;;;27.60;99.90;;;;;;4976419;28;20187;-61
2023/08/16 16:35:28;;;;;;;2.97;2.70;;;27.30;99.90;;;;;;4975958;28;20483;-61
2023/08/16 16:37:54;;;;;;;2.60;2.40;;;27.00;99.90;;;;;;4976561;28;20194;-62
2023/08/16 16:40:19;;;;;;;3.07;2.73;;;26.80;99.90;;;;;;4976257;28;20395;-60
2023/08/16 16:42:46;;;;;;;3.00;2.73;;;26.50;99.90;;;;;;4976127;28;20225;-61
2023/08/16 16:45:12;;;;;;;4.10;2.97;;;26.20;99.90;;;;;;4975986;28;20655;-61
2023/08/16 16:47:38;;;;;;;6.00;3.30;;;26.10;99.90;;;;;;4975959;28;20528;-60
2023/08/16 16:50:07;;;;;;;4.57;2.70;;;25.80;99.90;;;;;;4976026;28;20638;-62